Joncade — WDF3627 — position and weather

sailwx.info

Track history (hours):
 
Tides and Currents Weather Stations Pressure Air Temp Water Temp Dewpoint Dewpoint Depression Visibility Wind Speed Wind Dir Waves Ship Positions

Joncade

Owner: Gulf Logistics, LLC, Larose, LA. More information available from US FCC via Universal Licensing System and Coast Guard Vessel Documentation Center.

Last reported at 2017-Oct-02 20:50 UTC. Time now 2017-Nov-21 19:16 UTC.
Position N 29°38' W 092°16'.
Warning: this ship's position is 49 days out of date.

Length 58 m; draft 2.5 m.

MMSI: 367442150.

Date/timePositionNaut miles runAvg speedWind from/ knotsBaromVisibWave heightAir tempDewpointWater temp
2017-Oct-02 20:50N 29°38' W 092°16'822.7
2017-Oct-02 20:31N 29°45' W 092°12'2 3.8
2017-Oct-02 20:00N 29°47' W 092°11'0 0.0
2017-Oct-02 19:30N 29°47' W 092°11'0 0.0
2017-Oct-02 19:00N 29°47' W 092°11'2 3.7
2017-Oct-02 18:30N 29°47' W 092°09'1 1.3
2017-Oct-02 18:00N 29°48' W 092°09'0 0.0
2017-Oct-02 17:31N 29°48' W 092°09'2 3.7
2017-Oct-02 17:00N 29°47' W 092°10'1 1.6
2017-Oct-02 16:31N 29°47' W 092°11'0 0.0
2017-Oct-02 16:00N 29°47' W 092°11'2 3.6
2017-Oct-02 15:31N 29°45' W 092°12'7 0.3
2017-Oct-01 11:56N 29°39' W 092°16'920.2
2017-Oct-01 11:30N 29°47' W 092°11'1 1.2
2017-Oct-01 11:00N 29°47' W 092°11'0 0.0
2017-Oct-01 10:30N 29°47' W 092°11'0 0.0
2017-Oct-01 10:00N 29°47' W 092°11'0 0.0
2017-Oct-01 09:30N 29°47' W 092°11'0 0.2
2017-Oct-01 09:00N 29°47' W 092°11'917.9
2017-Oct-01 08:30N 29°39' W 092°16'1 0.0
2017-Sep-29 19:12N 29°37' W 092°16'418.3
2017-Sep-29 19:01N 29°41' W 092°15'713.7
2017-Sep-29 18:30N 29°47' W 092°11'0 0.2
2017-Sep-29 18:00N 29°47' W 092°11'2 3.1
2017-Sep-29 17:31N 29°45' W 092°12'816.7
2017-Sep-29 17:00N 29°38' W 092°16'1 0.1
2017-Sep-29 11:47N 29°38' W 092°16'520.0
2017-Sep-29 11:31N 29°44' W 092°15'4 8.4
2017-Sep-29 11:00N 29°47' W 092°11'0 0.0
2017-Sep-29 10:30N 29°47' W 092°11'0 0.0
2017-Sep-29 10:00N 29°47' W 092°11'0 0.0
2017-Sep-29 09:30N 29°47' W 092°11'612.7
2017-Sep-29 09:01N 29°41' W 092°15'4 0.5
2017-Sep-29 01:15N 29°38' W 092°16'522.7
2017-Sep-29 01:01N 29°43' W 092°15'510.3
2017-Sep-29 00:30N 29°47' W 092°11'0 0.0
2017-Sep-29 00:00N 29°47' W 092°11'0 0.0
2017-Sep-28 23:30N 29°47' W 092°11'0 0.5
2017-Sep-28 23:00N 29°47' W 092°11'918.0
2017-Sep-28 22:30N 29°39' W 092°16'2 0.3
2017-Sep-28 16:41N 29°40' W 092°15'423.6
2017-Sep-28 16:31N 29°44' W 092°14'4 7.0
2017-Sep-28 16:00N 29°47' W 092°11'0 0.0
2017-Sep-27 03:13N 29°47' W 092°11'0 0.0
2017-Sep-27 02:58N 29°47' W 092°11'0 0.0
2017-Sep-27 02:28N 29°47' W 092°11'0 0.0
2017-Sep-27 01:58N 29°47' W 092°11'0 0.0
2017-Sep-27 01:30N 29°47' W 092°11'0 0.0
2017-Sep-27 01:00N 29°47' W 092°11'0 0.0
2017-Sep-27 00:31N 29°47' W 092°11'0 0.0
2017-Sep-27 00:01N 29°47' W 092°11'0 0.0
2017-Sep-26 23:28N 29°47' W 092°11'0 0.0
2017-Sep-26 23:00N 29°47' W 092°11'0 0.0
2017-Sep-26 22:30N 29°47' W 092°11'0 0.0
2017-Sep-26 22:00N 29°47' W 092°11'0 0.0
2017-Sep-26 21:30N 29°47' W 092°11'0 0.0
2017-Sep-26 21:01N 29°47' W 092°11'0 0.0
2017-Sep-26 20:30N 29°47' W 092°11'0 0.0
2017-Sep-26 20:00N 29°47' W 092°11'0 0.0
2017-Sep-26 19:30N 29°47' W 092°11'0 0.0
2017-Sep-26 19:00N 29°47' W 092°11'0 0.0
2017-Sep-26 18:31N 29°47' W 092°11'0 0.0
2017-Sep-26 18:00N 29°47' W 092°11'0 0.0
2017-Sep-26 17:30N 29°47' W 092°11'0 0.0
2017-Sep-26 17:01N 29°47' W 092°11'0 0.0
2017-Sep-26 16:30N 29°47' W 092°11'0 0.0
2017-Sep-26 16:00N 29°47' W 092°11'0 0.0
2017-Sep-26 15:30N 29°47' W 092°11'0 0.0
2017-Sep-26 15:00N 29°47' W 092°11'0 0.0
2017-Sep-26 14:27N 29°47' W 092°11'0 0.0
2017-Sep-26 14:00N 29°47' W 092°11'0 0.0
2017-Sep-26 13:30N 29°47' W 092°11'0 0.0
2017-Sep-26 13:00N 29°47' W 092°11'0 0.0
2017-Sep-26 12:30N 29°47' W 092°11'0 0.0
2017-Sep-26 12:00N 29°47' W 092°11'0 0.0
2017-Sep-26 11:30N 29°47' W 092°11'0 0.0
2017-Sep-26 11:00N 29°47' W 092°11'0 0.0
2017-Sep-26 10:30N 29°47' W 092°11'0 0.0
2017-Sep-26 10:00N 29°47' W 092°11'0 0.0
2017-Sep-26 09:30N 29°47' W 092°11'0 0.0
2017-Sep-26 09:00N 29°47' W 092°11'0 0.0
2017-Sep-26 08:30N 29°47' W 092°11'0 0.0
2017-Sep-26 08:00N 29°47' W 092°11'0 0.0
2017-Sep-26 07:30N 29°47' W 092°11'0 0.0
2017-Sep-26 07:00N 29°47' W 092°11'0 0.0
2017-Sep-26 06:30N 29°47' W 092°11'0 0.0
2017-Sep-26 06:00N 29°47' W 092°11'0 0.0
2017-Sep-26 05:30N 29°47' W 092°11'0 0.0
2017-Sep-26 05:00N 29°47' W 092°11'0 0.0
2017-Sep-26 04:30N 29°47' W 092°11'0 0.0
2017-Sep-26 04:00N 29°47' W 092°11'0 0.0
2017-Sep-26 03:30N 29°47' W 092°11'0 0.0
2017-Sep-26 03:00N 29°47' W 092°11'0 0.0
2017-Sep-26 02:30N 29°47' W 092°11'1 2.4
2017-Sep-26 02:00N 29°47' W 092°10'1 2.6
2017-Sep-26 01:29N 29°48' W 092°09'0 0.0
2017-Sep-26 00:59N 29°48' W 092°09'1 2.8
2017-Sep-26 00:30N 29°47' W 092°10'1 2.2
2017-Sep-25 23:58N 29°47' W 092°11'0 0.2
2017-Sep-25 23:28N 29°47' W 092°11'0 0.2
2017-Sep-25 22:58N 29°47' W 092°11'0 0.0
2017-Sep-25 22:28N 29°47' W 092°11'0 0.1
2017-Sep-25 22:01N 29°47' W 092°11'4 7.5
2017-Sep-25 21:31N 29°44' W 092°14'8 0.6
2017-Sep-25 09:38N 29°37' W 092°17'322.5
2017-Sep-25 09:30N 29°40' W 092°15'816.7
2017-Sep-25 09:00N 29°47' W 092°11'0 0.1
2017-Sep-25 08:28N 29°47' W 092°11'0 0.0
2017-Sep-25 07:58N 29°47' W 092°11'0 0.0
2017-Sep-25 07:28N 29°47' W 092°11'0 0.0
2017-Sep-25 07:01N 29°47' W 092°11'0 0.0
2017-Sep-25 06:28N 29°47' W 092°11'0 0.0
2017-Sep-25 05:54N 29°47' W 092°11'1 1.9
2017-Sep-25 05:30N 29°46' W 092°11'10 0.4
2017-Sep-24 04:45N 29°38' W 092°16'625.8
2017-Sep-24 04:31N 29°44' W 092°15'5 8.4
2017-Sep-24 03:58N 29°47' W 092°11'0 0.0
2017-Sep-24 03:28N 29°47' W 092°11'0 0.0
2017-Sep-24 02:58N 29°47' W 092°11'0 0.0
2017-Sep-24 02:28N 29°47' W 092°11'0 0.0
2017-Sep-24 01:58N 29°47' W 092°11'0 0.0
2017-Sep-24 01:28N 29°47' W 092°11'0 0.0
2017-Sep-24 00:58N 29°47' W 092°11'0 0.0
2017-Sep-24 00:28N 29°47' W 092°11'0 0.0
2017-Sep-23 23:58N 29°47' W 092°11'0 0.0
2017-Sep-23 23:28N 29°47' W 092°11'0 0.0
2017-Sep-23 22:58N 29°47' W 092°11'0 0.0
2017-Sep-23 22:28N 29°47' W 092°11'0 0.0
2017-Sep-23 21:58N 29°47' W 092°11'0 0.0
2017-Sep-23 21:28N 29°47' W 092°11'0 0.0
2017-Sep-23 20:58N 29°47' W 092°11'0 0.0
2017-Sep-23 20:28N 29°47' W 092°11'0 0.0
2017-Sep-23 19:58N 29°47' W 092°11'  
Track history (hours):
 
Tides and Currents Weather Stations Pressure Air Temp Water Temp Dewpoint Dewpoint Depression Visibility Wind Speed Wind Dir Waves Ship Positions

Joncade

Owner: Gulf Logistics, LLC, Larose, LA. More information available from US FCC via Universal Licensing System and Coast Guard Vessel Documentation Center.

Last reported at 2017-Oct-02 20:50 UTC. Time now 2017-Nov-21 19:16 UTC.
Position N 29°38' W 092°16'.
Warning: this ship's position is 49 days out of date.

Length 58 m; draft 2.5 m.

MMSI: 367442150.

Date/timePositionNaut miles runAvg speedWind from/ knotsBaromVisibWave heightAir tempDewpointWater temp
2017-Oct-02 20:50N 29°38' W 092°16'822.7
2017-Oct-02 20:31N 29°45' W 092°12'2 3.8
2017-Oct-02 20:00N 29°47' W 092°11'0 0.0
2017-Oct-02 19:30N 29°47' W 092°11'0 0.0
2017-Oct-02 19:00N 29°47' W 092°11'2 3.7
2017-Oct-02 18:30N 29°47' W 092°09'1 1.3
2017-Oct-02 18:00N 29°48' W 092°09'0 0.0
2017-Oct-02 17:31N 29°48' W 092°09'2 3.7
2017-Oct-02 17:00N 29°47' W 092°10'1 1.6
2017-Oct-02 16:31N 29°47' W 092°11'0 0.0
2017-Oct-02 16:00N 29°47' W 092°11'2 3.6
2017-Oct-02 15:31N 29°45' W 092°12'7 0.3
2017-Oct-01 11:56N 29°39' W 092°16'920.2
2017-Oct-01 11:30N 29°47' W 092°11'1 1.2
2017-Oct-01 11:00N 29°47' W 092°11'0 0.0
2017-Oct-01 10:30N 29°47' W 092°11'0 0.0
2017-Oct-01 10:00N 29°47' W 092°11'0 0.0
2017-Oct-01 09:30N 29°47' W 092°11'0 0.2
2017-Oct-01 09:00N 29°47' W 092°11'917.9
2017-Oct-01 08:30N 29°39' W 092°16'1 0.0
2017-Sep-29 19:12N 29°37' W 092°16'418.3
2017-Sep-29 19:01N 29°41' W 092°15'713.7
2017-Sep-29 18:30N 29°47' W 092°11'0 0.2
2017-Sep-29 18:00N 29°47' W 092°11'2 3.1
2017-Sep-29 17:31N 29°45' W 092°12'816.7
2017-Sep-29 17:00N 29°38' W 092°16'1 0.1
2017-Sep-29 11:47N 29°38' W 092°16'520.0
2017-Sep-29 11:31N 29°44' W 092°15'4 8.4
2017-Sep-29 11:00N 29°47' W 092°11'0 0.0
2017-Sep-29 10:30N 29°47' W 092°11'0 0.0
2017-Sep-29 10:00N 29°47' W 092°11'0 0.0
2017-Sep-29 09:30N 29°47' W 092°11'612.7
2017-Sep-29 09:01N 29°41' W 092°15'4 0.5
2017-Sep-29 01:15N 29°38' W 092°16'522.7
2017-Sep-29 01:01N 29°43' W 092°15'510.3
2017-Sep-29 00:30N 29°47' W 092°11'0 0.0
2017-Sep-29 00:00N 29°47' W 092°11'0 0.0
2017-Sep-28 23:30N 29°47' W 092°11'0 0.5
2017-Sep-28 23:00N 29°47' W 092°11'918.0
2017-Sep-28 22:30N 29°39' W 092°16'2 0.3
2017-Sep-28 16:41N 29°40' W 092°15'423.6
2017-Sep-28 16:31N 29°44' W 092°14'4 7.0
2017-Sep-28 16:00N 29°47' W 092°11'0 0.0
2017-Sep-27 03:13N 29°47' W 092°11'0 0.0
2017-Sep-27 02:58N 29°47' W 092°11'0 0.0
2017-Sep-27 02:28N 29°47' W 092°11'0 0.0
2017-Sep-27 01:58N 29°47' W 092°11'0 0.0
2017-Sep-27 01:30N 29°47' W 092°11'0 0.0
2017-Sep-27 01:00N 29°47' W 092°11'0 0.0
2017-Sep-27 00:31N 29°47' W 092°11'0 0.0
2017-Sep-27 00:01N 29°47' W 092°11'0 0.0
2017-Sep-26 23:28N 29°47' W 092°11'0 0.0
2017-Sep-26 23:00N 29°47' W 092°11'0 0.0
2017-Sep-26 22:30N 29°47' W 092°11'0 0.0
2017-Sep-26 22:00N 29°47' W 092°11'0 0.0
2017-Sep-26 21:30N 29°47' W 092°11'0 0.0
2017-Sep-26 21:01N 29°47' W 092°11'0 0.0
2017-Sep-26 20:30N 29°47' W 092°11'0 0.0
2017-Sep-26 20:00N 29°47' W 092°11'0 0.0
2017-Sep-26 19:30N 29°47' W 092°11'0 0.0
2017-Sep-26 19:00N 29°47' W 092°11'0 0.0
2017-Sep-26 18:31N 29°47' W 092°11'0 0.0
2017-Sep-26 18:00N 29°47' W 092°11'0 0.0
2017-Sep-26 17:30N 29°47' W 092°11'0 0.0
2017-Sep-26 17:01N 29°47' W 092°11'0 0.0
2017-Sep-26 16:30N 29°47' W 092°11'0 0.0
2017-Sep-26 16:00N 29°47' W 092°11'0 0.0
2017-Sep-26 15:30N 29°47' W 092°11'0 0.0
2017-Sep-26 15:00N 29°47' W 092°11'0 0.0
2017-Sep-26 14:27N 29°47' W 092°11'0 0.0
2017-Sep-26 14:00N 29°47' W 092°11'0 0.0
2017-Sep-26 13:30N 29°47' W 092°11'0 0.0
2017-Sep-26 13:00N 29°47' W 092°11'0 0.0
2017-Sep-26 12:30N 29°47' W 092°11'0 0.0
2017-Sep-26 12:00N 29°47' W 092°11'0 0.0
2017-Sep-26 11:30N 29°47' W 092°11'0 0.0
2017-Sep-26 11:00N 29°47' W 092°11'0 0.0
2017-Sep-26 10:30N 29°47' W 092°11'0 0.0
2017-Sep-26 10:00N 29°47' W 092°11'0 0.0
2017-Sep-26 09:30N 29°47' W 092°11'0 0.0
2017-Sep-26 09:00N 29°47' W 092°11'0 0.0
2017-Sep-26 08:30N 29°47' W 092°11'0 0.0
2017-Sep-26 08:00N 29°47' W 092°11'0 0.0
2017-Sep-26 07:30N 29°47' W 092°11'0 0.0
2017-Sep-26 07:00N 29°47' W 092°11'0 0.0
2017-Sep-26 06:30N 29°47' W 092°11'0 0.0
2017-Sep-26 06:00N 29°47' W 092°11'0 0.0
2017-Sep-26 05:30N 29°47' W 092°11'0 0.0
2017-Sep-26 05:00N 29°47' W 092°11'0 0.0
2017-Sep-26 04:30N 29°47' W 092°11'0 0.0
2017-Sep-26 04:00N 29°47' W 092°11'0 0.0
2017-Sep-26 03:30N 29°47' W 092°11'0 0.0
2017-Sep-26 03:00N 29°47' W 092°11'0 0.0
2017-Sep-26 02:30N 29°47' W 092°11'1 2.4
2017-Sep-26 02:00N 29°47' W 092°10'1 2.6
2017-Sep-26 01:29N 29°48' W 092°09'0 0.0
2017-Sep-26 00:59N 29°48' W 092°09'1 2.8
2017-Sep-26 00:30N 29°47' W 092°10'1 2.2
2017-Sep-25 23:58N 29°47' W 092°11'0 0.2
2017-Sep-25 23:28N 29°47' W 092°11'0 0.2
2017-Sep-25 22:58N 29°47' W 092°11'0 0.0
2017-Sep-25 22:28N 29°47' W 092°11'0 0.1
2017-Sep-25 22:01N 29°47' W 092°11'4 7.5
2017-Sep-25 21:31N 29°44' W 092°14'8 0.6
2017-Sep-25 09:38N 29°37' W 092°17'322.5
2017-Sep-25 09:30N 29°40' W 092°15'816.7
2017-Sep-25 09:00N 29°47' W 092°11'0 0.1
2017-Sep-25 08:28N 29°47' W 092°11'0 0.0
2017-Sep-25 07:58N 29°47' W 092°11'0 0.0
2017-Sep-25 07:28N 29°47' W 092°11'0 0.0
2017-Sep-25 07:01N 29°47' W 092°11'0 0.0
2017-Sep-25 06:28N 29°47' W 092°11'0 0.0
2017-Sep-25 05:54N 29°47' W 092°11'1 1.9
2017-Sep-25 05:30N 29°46' W 092°11'10 0.4
2017-Sep-24 04:45N 29°38' W 092°16'625.8
2017-Sep-24 04:31N 29°44' W 092°15'5 8.4
2017-Sep-24 03:58N 29°47' W 092°11'0 0.0
2017-Sep-24 03:28N 29°47' W 092°11'0 0.0
2017-Sep-24 02:58N 29°47' W 092°11'0 0.0
2017-Sep-24 02:28N 29°47' W 092°11'0 0.0
2017-Sep-24 01:58N 29°47' W 092°11'0 0.0
2017-Sep-24 01:28N 29°47' W 092°11'0 0.0
2017-Sep-24 00:58N 29°47' W 092°11'0 0.0
2017-Sep-24 00:28N 29°47' W 092°11'0 0.0
2017-Sep-23 23:58N 29°47' W 092°11'0 0.0
2017-Sep-23 23:28N 29°47' W 092°11'0 0.0
2017-Sep-23 22:58N 29°47' W 092°11'0 0.0
2017-Sep-23 22:28N 29°47' W 092°11'0 0.0
2017-Sep-23 21:58N 29°47' W 092°11'0 0.0
2017-Sep-23 21:28N 29°47' W 092°11'0 0.0
2017-Sep-23 20:58N 29°47' W 092°11'0 0.0
2017-Sep-23 20:28N 29°47' W 092°11'0 0.0
2017-Sep-23 19:58N 29°47' W 092°11'  

Dump ship's entire track history